createdAt,value
2017-10-12T00:02:15.298Z,7.37
2017-10-12T00:04:42.772Z,3.00
2017-10-12T00:07:11.028Z,4.97
2017-10-12T00:09:38.671Z,4.13
2017-10-12T00:12:06.150Z,2.60
2017-10-12T00:14:34.412Z,2.93
2017-10-12T00:17:01.885Z,6.83
2017-10-12T00:19:29.356Z,3.93
2017-10-12T00:21:57.601Z,3.80
2017-10-12T00:24:25.065Z,3.43
2017-10-12T00:26:53.317Z,4.00
2017-10-12T00:29:20.811Z,5.87
2017-10-12T00:31:49.067Z,7.30
2017-10-12T00:34:16.577Z,3.33
2017-10-12T00:36:44.075Z,3.00
2017-10-12T00:39:11.672Z,3.33
2017-10-12T00:41:39.926Z,4.27
2017-10-12T00:44:07.415Z,3.03
2017-10-12T00:46:35.672Z,6.73
2017-10-12T00:49:03.175Z,3.43
2017-10-12T00:51:30.672Z,3.30
2017-10-12T00:53:58.140Z,11.00
2017-10-12T00:56:25.631Z,3.73
2017-10-12T00:58:53.168Z,4.73
2017-10-12T01:01:21.431Z,8.83
2017-10-12T01:03:48.949Z,5.60
2017-10-12T01:06:16.452Z,4.80
2017-10-12T01:08:44.735Z,4.23
2017-10-12T01:11:13.276Z,5.00
2017-10-12T01:13:40.756Z,4.00
2017-10-12T01:16:08.335Z,3.50
2017-10-12T01:18:36.584Z,4.10
2017-10-12T01:21:05.644Z,5.40
2017-10-12T01:23:33.104Z,3.43
2017-10-12T01:26:00.573Z,3.37
2017-10-12T01:28:28.042Z,4.00
2017-10-12T01:30:55.513Z,3.00
2017-10-12T01:33:22.981Z,2.73
2017-10-12T01:35:51.228Z,3.77
2017-10-12T01:38:20.216Z,3.23
2017-10-12T01:40:47.704Z,6.00
2017-10-12T01:43:15.977Z,3.60
2017-10-12T01:45:44.229Z,3.43
2017-10-12T01:48:11.798Z,6.40
2017-10-12T01:50:39.271Z,5.63
2017-10-12T01:53:07.498Z,4.60
2017-10-12T01:55:34.972Z,9.40
2017-10-12T01:58:02.530Z,3.10
2017-10-12T02:00:30.007Z,7.57
2017-10-12T02:02:57.475Z,5.40
2017-10-12T02:05:24.998Z,4.63
2017-10-12T02:07:52.732Z,7.20
2017-10-12T02:10:20.683Z,9.70
2017-10-12T02:12:48.905Z,4.80
2017-10-12T02:15:16.390Z,3.90
2017-10-12T02:17:43.843Z,4.13
2017-10-12T02:20:12.069Z,10.17
2017-10-12T02:22:39.651Z,4.00
2017-10-12T02:25:07.110Z,3.87
2017-10-12T02:27:34.589Z,3.80
2017-10-12T02:30:02.075Z,20.27
2017-10-12T02:32:29.526Z,6.23
2017-10-12T02:34:57.750Z,3.27
2017-10-12T02:37:25.234Z,6.10
2017-10-12T02:39:52.689Z,5.97
2017-10-12T02:42:20.195Z,7.57
2017-10-12T02:44:47.654Z,4.07
2017-10-12T02:47:15.157Z,4.70
2017-10-12T02:49:42.621Z,4.80
2017-10-12T02:52:10.869Z,7.13
2017-10-12T02:54:38.326Z,7.20
2017-10-12T02:57:05.807Z,5.30
2017-10-12T02:59:33.272Z,6.67
2017-10-12T03:02:02.258Z,5.40
2017-10-12T03:04:30.483Z,3.63
2017-10-12T03:06:57.943Z,4.57
2017-10-12T03:09:25.417Z,5.90
2017-10-12T03:11:52.893Z,3.83
2017-10-12T03:14:20.565Z,3.93
2017-10-12T03:16:48.793Z,7.40
2017-10-12T03:19:16.273Z,5.80
2017-10-12T03:21:43.750Z,4.87
2017-10-12T03:24:12.884Z,4.90
2017-10-12T03:26:40.349Z,4.60
2017-10-12T03:29:07.840Z,7.50
2017-10-12T03:31:35.310Z,7.27
2017-10-12T03:34:03.507Z,4.73
2017-10-12T03:36:31.758Z,4.30
2017-10-12T03:38:59.228Z,4.17
2017-10-12T03:41:26.678Z,4.53
2017-10-12T03:43:54.262Z,6.83
2017-10-12T03:46:22.490Z,5.60
2017-10-12T03:48:49.945Z,5.57
2017-10-12T03:51:17.420Z,5.33
2017-10-12T03:53:44.886Z,7.47
2017-10-12T03:56:12.522Z,5.53
2017-10-12T03:58:40.060Z,6.60
2017-10-12T04:01:07.721Z,7.13
2017-10-12T04:03:35.237Z,5.27
2017-10-12T04:06:03.611Z,5.90
2017-10-12T04:08:31.838Z,4.57
2017-10-12T04:10:59.318Z,3.93
2017-10-12T04:13:26.781Z,4.30
2017-10-12T04:15:54.254Z,5.23
2017-10-12T04:18:22.471Z,5.87
2017-10-12T04:20:50.046Z,5.83
2017-10-12T04:23:17.534Z,5.30
2017-10-12T04:25:45.043Z,8.27
2017-10-12T04:28:12.517Z,6.33
2017-10-12T04:30:39.995Z,4.77
2017-10-12T04:33:07.457Z,7.50
2017-10-12T04:35:36.441Z,7.73
2017-10-12T04:38:03.906Z,5.53
2017-10-12T04:40:31.361Z,13.60
2017-10-12T04:42:58.844Z,6.27
2017-10-12T04:45:27.065Z,8.50
2017-10-12T04:47:54.542Z,6.30
2017-10-12T04:50:22.061Z,13.13
2017-10-12T04:52:49.539Z,5.83
2017-10-12T04:55:16.998Z,9.57
2017-10-12T04:57:44.462Z,11.03
2017-10-12T05:00:11.972Z,8.73
2017-10-12T05:02:40.409Z,9.80
2017-10-12T05:05:07.934Z,9.23
2017-10-12T05:07:35.633Z,13.90
2017-10-12T05:10:03.173Z,10.83
2017-10-12T05:12:30.711Z,10.47
2017-10-12T05:14:58.196Z,12.00
2017-10-12T05:17:25.681Z,11.73
2017-10-12T05:19:53.942Z,8.10
2017-10-12T05:22:21.409Z,14.20
2017-10-12T05:24:50.418Z,11.37
2017-10-12T05:27:18.653Z,17.17
2017-10-12T05:29:46.118Z,12.13
2017-10-12T05:32:13.712Z,14.23
2017-10-12T05:34:41.960Z,17.40
2017-10-12T05:37:10.201Z,13.60
2017-10-12T05:39:37.665Z,10.30
2017-10-12T05:42:05.167Z,13.90
2017-10-12T05:44:33.398Z,14.00
2017-10-12T05:47:00.900Z,20.10
2017-10-12T05:49:29.129Z,17.40
2017-10-12T05:51:56.610Z,10.10
2017-10-12T05:54:24.840Z,17.20
2017-10-12T05:56:52.321Z,18.63
2017-10-12T05:59:19.817Z,15.70
2017-10-12T06:01:48.041Z,16.43
2017-10-12T06:04:15.533Z,14.57
2017-10-12T06:06:42.993Z,14.70
2017-10-12T06:09:10.473Z,17.07
2017-10-12T06:11:38.717Z,25.00
2017-10-12T06:14:06.184Z,21.87
2017-10-12T06:16:34.441Z,37.07
2017-10-12T06:19:01.969Z,25.70
2017-10-12T06:21:29.474Z,28.50
2017-10-12T06:23:56.942Z,31.93
2017-10-12T06:26:24.425Z,19.33
2017-10-12T06:28:51.914Z,20.37
2017-10-12T06:31:19.478Z,15.87
2017-10-12T06:33:46.987Z,17.20
2017-10-12T06:36:15.221Z,17.37
2017-10-12T06:38:42.686Z,16.20
2017-10-12T06:41:10.179Z,21.17
2017-10-12T06:43:38.399Z,12.60
2017-10-12T06:46:06.023Z,22.13
2017-10-12T06:48:33.521Z,20.93
2017-10-12T06:51:01.081Z,23.90
2017-10-12T06:53:28.725Z,14.60
2017-10-12T06:55:56.189Z,18.37
2017-10-12T06:58:23.680Z,18.30
2017-10-12T07:00:52.648Z,20.63
2017-10-12T07:03:20.178Z,13.53
2017-10-12T07:05:47.765Z,22.40
2017-10-12T07:08:15.347Z,18.20
2017-10-12T07:10:44.326Z,17.13
2017-10-12T07:13:11.786Z,31.17
2017-10-12T07:15:40.782Z,20.17
2017-10-12T07:18:08.238Z,16.13
2017-10-12T07:20:37.378Z,23.83
2017-10-12T07:23:04.850Z,19.63
2017-10-12T07:25:32.333Z,17.63
2017-10-12T07:27:59.792Z,13.77
2017-10-12T07:30:27.278Z,23.13
2017-10-12T07:32:55.511Z,19.83
2017-10-12T07:35:23.007Z,20.00
2017-10-12T07:37:50.466Z,30.60
2017-10-12T07:40:18.710Z,21.40
2017-10-12T07:42:46.206Z,18.00
2017-10-12T07:45:14.455Z,15.27
2017-10-12T07:47:41.941Z,24.57
2017-10-12T07:50:10.329Z,23.97
2017-10-12T07:52:37.833Z,20.37
2017-10-12T07:55:05.292Z,14.53
2017-10-12T07:57:32.789Z,18.23
2017-10-12T08:00:01.008Z,18.53
2017-10-12T08:02:28.489Z,18.03
2017-10-12T08:04:55.970Z,20.63
2017-10-12T08:07:24.213Z,19.83
2017-10-12T08:09:51.689Z,15.53
2017-10-12T08:12:20.699Z,18.53
2017-10-12T08:14:48.975Z,20.87
2017-10-12T08:17:17.200Z,21.13
2017-10-12T08:19:44.680Z,25.70
2017-10-12T08:22:12.165Z,19.73
2017-10-12T08:24:40.414Z,17.87
2017-10-12T08:27:07.958Z,20.90
2017-10-12T08:29:35.459Z,22.47
2017-10-12T08:32:03.762Z,18.33
2017-10-12T08:34:31.252Z,20.13
2017-10-12T08:36:58.713Z,22.67
2017-10-12T08:39:26.202Z,20.73
2017-10-12T08:41:54.428Z,15.20
2017-10-12T08:44:22.076Z,25.33
2017-10-12T08:46:49.708Z,14.40
2017-10-12T08:49:17.936Z,22.10
2017-10-12T08:51:45.593Z,23.83
2017-10-12T08:54:13.963Z,15.20
2017-10-12T08:56:41.575Z,15.50
2017-10-12T08:59:09.801Z,23.80
2017-10-12T09:01:37.329Z,15.97
2017-10-12T09:04:04.831Z,14.63
2017-10-12T09:06:32.428Z,13.73
2017-10-12T09:09:00.685Z,22.60
2017-10-12T09:11:28.160Z,18.83
2017-10-12T09:13:56.401Z,24.63
2017-10-12T09:16:23.878Z,14.20
2017-10-12T09:18:52.173Z,21.60
2017-10-12T09:21:20.412Z,30.33
2017-10-12T09:23:47.989Z,21.53
2017-10-12T09:26:22.134Z,17.80
2017-10-12T09:28:49.694Z,17.80
2017-10-12T09:31:17.167Z,25.07
2017-10-12T09:33:45.376Z,26.07
2017-10-12T09:36:12.861Z,14.50
2017-10-12T09:38:41.093Z,24.90
2017-10-12T09:41:08.566Z,13.70
2017-10-12T09:43:36.820Z,16.80
2017-10-12T09:46:04.297Z,17.77
2017-10-12T09:48:31.766Z,17.20
2017-10-12T09:50:59.249Z,17.63
2017-10-12T09:53:26.701Z,18.67
2017-10-12T09:55:54.954Z,14.10
2017-10-12T09:58:22.433Z,15.70
2017-10-12T10:00:50.695Z,14.07
2017-10-12T10:03:18.922Z,10.83
2017-10-12T10:05:46.390Z,11.90
2017-10-12T10:08:13.875Z,14.90
2017-10-12T10:10:41.336Z,9.63
2017-10-12T10:13:08.841Z,10.97
2017-10-12T10:15:36.296Z,14.10
2017-10-12T10:18:04.536Z,8.10
2017-10-12T10:20:32.756Z,9.37
2017-10-12T10:23:00.299Z,8.87
2017-10-12T10:25:27.783Z,11.07
2017-10-12T10:27:55.241Z,10.93
2017-10-12T10:30:22.734Z,16.70
2017-10-12T10:32:50.181Z,5.43
2017-10-12T10:35:17.660Z,14.03
2017-10-12T10:37:45.150Z,14.50
2017-10-12T10:40:12.627Z,16.43
2017-10-12T10:42:40.188Z,14.10
2017-10-12T10:45:07.854Z,5.80
2017-10-12T10:47:35.310Z,11.10
2017-10-12T10:50:02.994Z,10.43
2017-10-12T10:52:31.957Z,12.23
2017-10-12T10:54:59.466Z,12.10
2017-10-12T10:57:27.691Z,11.97
2017-10-12T10:59:55.165Z,11.03
2017-10-12T11:02:23.764Z,9.23
2017-10-12T11:04:51.374Z,8.70
2017-10-12T11:07:18.963Z,15.73
2017-10-12T11:09:47.936Z,9.67
2017-10-12T11:12:15.419Z,9.57
2017-10-12T11:14:42.890Z,8.00
2017-10-12T11:17:11.213Z,9.33
2017-10-12T11:19:38.871Z,11.40
2017-10-12T11:22:06.326Z,11.77
2017-10-12T11:24:33.809Z,17.97
2017-10-12T11:27:01.267Z,12.20
2017-10-12T11:29:28.824Z,11.37
2017-10-12T11:31:56.454Z,14.67
2017-10-12T11:34:24.641Z,12.33
2017-10-12T11:36:52.092Z,8.73
2017-10-12T11:39:19.575Z,9.30
2017-10-12T11:41:47.046Z,10.53
2017-10-12T11:44:14.544Z,12.43
2017-10-12T11:46:42.037Z,12.80
2017-10-12T11:49:09.501Z,9.87
2017-10-12T11:51:37.460Z,10.60
2017-10-12T11:54:05.208Z,8.67
2017-10-12T11:56:32.666Z,10.10
2017-10-12T11:59:00.172Z,12.70
2017-10-12T12:01:27.721Z,8.63
2017-10-12T12:03:55.189Z,6.90
2017-10-12T12:06:22.656Z,10.20
2017-10-12T12:08:50.899Z,14.90
2017-10-12T12:11:18.378Z,10.30
2017-10-12T12:13:45.828Z,10.43
2017-10-12T12:16:14.091Z,15.87
2017-10-12T12:18:41.555Z,12.70
2017-10-12T12:21:10.852Z,10.70
2017-10-12T12:23:39.074Z,7.90
2017-10-12T12:26:06.544Z,8.17
2017-10-12T12:28:34.020Z,7.50
2017-10-12T12:31:01.472Z,12.10
2017-10-12T12:33:29.050Z,11.70
2017-10-12T12:35:56.496Z,13.30
2017-10-12T12:38:23.980Z,10.83
2017-10-12T12:40:51.438Z,13.93
2017-10-12T12:43:19.008Z,8.73
2017-10-12T12:45:47.249Z,5.53
2017-10-12T12:48:14.709Z,10.43
2017-10-12T12:50:42.206Z,10.37
2017-10-12T12:53:10.426Z,9.20
2017-10-12T12:55:37.888Z,6.37
2017-10-12T12:58:05.355Z,12.77
2017-10-12T13:00:32.816Z,5.73
2017-10-12T13:03:00.286Z,13.83
2017-10-12T13:07:55.365Z,9.43
2017-10-12T13:10:22.851Z,8.03
2017-10-12T13:12:51.048Z,11.90
2017-10-12T13:15:19.307Z,8.40
2017-10-12T13:17:46.969Z,14.60
2017-10-12T13:20:14.427Z,7.30
2017-10-12T13:22:41.906Z,9.73
2017-10-12T13:25:10.121Z,5.87
2017-10-12T13:27:37.590Z,4.77
2017-10-12T13:30:05.048Z,10.77
2017-10-12T13:32:32.532Z,8.50
2017-10-12T13:34:59.992Z,9.33
2017-10-12T13:37:28.197Z,10.30
2017-10-12T13:39:55.672Z,8.33
2017-10-12T13:42:23.149Z,4.07
2017-10-12T13:44:50.613Z,9.83
2017-10-12T13:47:18.085Z,8.50
2017-10-12T13:49:46.049Z,5.80
2017-10-12T13:52:13.545Z,11.67
2017-10-12T13:54:41.022Z,8.67
2017-10-12T13:57:08.588Z,9.40
2017-10-12T14:12:22.794Z,6.40
2017-10-12T14:14:50.271Z,15.50
2017-10-12T14:17:17.899Z,5.83
2017-10-12T14:19:46.125Z,6.13
2017-10-12T14:22:13.606Z,6.47
2017-10-12T14:24:42.662Z,6.13
2017-10-12T14:27:10.132Z,10.87
2017-10-12T14:29:37.629Z,7.23
2017-10-12T14:32:05.229Z,9.53
2017-10-12T14:34:32.697Z,19.30
2017-10-12T14:37:00.152Z,9.63
2017-10-12T14:39:27.629Z,10.13
2017-10-12T14:41:56.798Z,7.33
2017-10-12T14:44:24.265Z,7.70
2017-10-12T14:46:51.728Z,11.73
2017-10-12T14:49:19.204Z,7.17
2017-10-12T14:51:46.676Z,10.90
2017-10-12T14:54:14.155Z,8.33
2017-10-12T14:56:42.377Z,11.03
2017-10-12T14:59:09.861Z,8.50
2017-10-12T15:01:37.337Z,9.73
2017-10-12T15:04:06.061Z,16.07
2017-10-12T15:06:33.732Z,6.73
2017-10-12T15:09:01.313Z,7.43
2017-10-12T15:11:29.608Z,9.03
2017-10-12T15:13:57.173Z,6.53
2017-10-12T15:16:25.439Z,11.70
2017-10-12T15:18:52.910Z,9.73
2017-10-12T15:21:21.142Z,7.00
2017-10-12T15:23:48.634Z,8.47
2017-10-12T15:26:16.856Z,8.13
2017-10-12T15:28:44.966Z,9.00
2017-10-12T15:31:13.973Z,10.13
2017-10-12T15:33:42.222Z,6.73
2017-10-12T15:36:09.693Z,12.27
2017-10-12T15:38:37.175Z,11.20
2017-10-12T15:41:04.653Z,10.47
2017-10-12T15:43:32.131Z,12.03
2017-10-12T15:45:59.617Z,10.43
2017-10-12T15:48:27.873Z,11.00
2017-10-12T15:50:55.343Z,6.13
2017-10-12T15:53:22.809Z,8.50
2017-10-12T15:55:50.280Z,11.10
2017-10-12T15:58:18.508Z,12.23
2017-10-12T16:00:45.986Z,6.90
2017-10-12T16:03:13.460Z,13.43
2017-10-12T16:05:42.448Z,4.77
2017-10-12T16:08:09.920Z,18.30
2017-10-12T16:10:38.181Z,28.07
2017-10-12T16:13:05.653Z,9.30
2017-10-12T16:15:33.884Z,11.63
2017-10-12T16:18:01.384Z,14.27
2017-10-12T16:20:29.634Z,14.60
2017-10-12T16:25:24.587Z,5.63
2017-10-12T16:27:52.070Z,7.57
2017-10-12T16:30:19.530Z,13.07
2017-10-12T16:37:48.449Z,9.73
2017-10-12T16:40:15.914Z,4.10
2017-10-12T16:42:43.423Z,9.90
2017-10-12T16:45:10.873Z,8.57
2017-10-12T16:47:38.351Z,11.80
2017-10-12T16:50:05.934Z,7.47
2017-10-12T16:52:33.509Z,13.10
2017-10-12T16:55:00.968Z,17.20
2017-10-12T16:57:28.458Z,9.00
2017-10-12T16:59:55.910Z,12.97
2017-10-12T17:02:23.458Z,9.17
2017-10-12T17:04:52.445Z,9.00
2017-10-12T17:07:19.926Z,3.27
2017-10-12T17:09:47.482Z,10.07
2017-10-12T17:12:14.969Z,10.03
2017-10-12T17:14:42.466Z,12.03
2017-10-12T17:17:10.469Z,11.20
2017-10-12T17:19:37.958Z,6.67
2017-10-12T17:22:05.454Z,13.53
2017-10-12T17:24:32.974Z,8.10
2017-10-12T17:27:00.427Z,12.90
2017-10-12T17:29:28.043Z,11.07
2017-10-12T17:31:55.537Z,10.33
2017-10-12T17:34:23.776Z,13.27
2017-10-12T17:36:51.256Z,6.53
2017-10-12T17:39:19.578Z,6.93
2017-10-12T17:41:47.560Z,11.87
2017-10-12T17:44:15.041Z,8.60
2017-10-12T17:46:44.058Z,7.90
2017-10-12T17:49:12.296Z,18.00
2017-10-12T17:51:39.779Z,9.80
2017-10-12T17:54:37.055Z,16.13
2017-10-12T17:56:36.582Z,11.93
2017-10-12T17:59:04.053Z,10.50
2017-10-12T18:01:31.544Z,12.63
2017-10-12T18:03:59.057Z,10.33
2017-10-12T18:06:26.762Z,8.67
2017-10-12T18:08:54.250Z,12.50
2017-10-12T18:11:21.734Z,13.10
2017-10-12T18:13:49.225Z,11.60
2017-10-12T18:16:18.205Z,14.60
2017-10-12T18:18:45.713Z,11.07
2017-10-12T18:21:13.952Z,19.80
2017-10-12T18:23:41.440Z,10.53
2017-10-12T18:26:08.945Z,10.90
2017-10-12T18:28:36.453Z,9.40
2017-10-12T18:31:05.165Z,12.07
2017-10-12T18:33:32.646Z,15.63
2017-10-12T18:36:00.129Z,14.20
2017-10-12T18:38:27.638Z,16.50
2017-10-12T18:40:55.138Z,11.70
2017-10-12T18:43:22.615Z,17.33
2017-10-12T18:45:50.867Z,16.40
2017-10-12T18:48:18.346Z,11.43
2017-10-12T18:50:47.295Z,11.60
2017-10-12T18:53:14.783Z,18.20
2017-10-12T18:55:42.288Z,18.33
2017-10-12T18:58:09.752Z,12.80
2017-10-12T19:00:37.234Z,21.37
2017-10-12T19:03:04.726Z,51.53
2017-10-12T19:05:33.015Z,13.70
2017-10-12T19:08:01.266Z,17.33
2017-10-12T19:10:28.722Z,12.53
2017-10-12T19:12:56.997Z,28.80
2017-10-12T19:15:24.550Z,13.07
2017-10-12T19:17:52.061Z,24.30
2017-10-12T19:20:20.295Z,21.40
2017-10-12T19:22:48.558Z,18.67
2017-10-12T19:25:16.874Z,12.53
2017-10-12T19:27:44.365Z,29.10
2017-10-12T19:30:12.461Z,14.93
2017-10-12T19:32:39.999Z,12.93
2017-10-12T19:35:07.480Z,11.87
2017-10-12T19:37:36.460Z,15.73
2017-10-12T19:40:03.961Z,30.97
2017-10-12T19:42:32.949Z,28.73
2017-10-12T19:45:01.207Z,16.67
2017-10-12T19:47:28.713Z,17.73
2017-10-12T19:49:56.185Z,15.23
2017-10-12T19:52:24.381Z,16.93
2017-10-12T19:54:52.465Z,12.73
2017-10-12T19:57:19.986Z,12.70
2017-10-12T19:59:48.507Z,15.00
2017-10-12T20:02:15.994Z,14.80
2017-10-12T20:04:43.625Z,13.23
2017-10-12T20:07:11.899Z,12.10
2017-10-12T20:09:39.505Z,12.00
2017-10-12T20:12:07.129Z,19.20
2017-10-12T20:14:35.390Z,18.43
2017-10-12T20:17:02.874Z,14.70
2017-10-12T20:19:31.121Z,16.40
2017-10-12T20:21:59.425Z,13.70
2017-10-12T20:24:27.027Z,14.90
2017-10-12T20:26:55.302Z,18.37
2017-10-12T20:31:51.464Z,21.13
2017-10-12T20:34:19.921Z,53.97
2017-10-12T20:36:47.519Z,23.53
2017-10-12T20:39:15.881Z,14.97
2017-10-12T20:46:38.403Z,22.77
2017-10-12T20:49:05.917Z,8.67
2017-10-12T20:54:20.416Z,16.43
2017-10-12T20:56:50.685Z,15.03
2017-10-12T20:59:19.673Z,14.00
2017-10-12T21:01:59.411Z,17.50
2017-10-12T21:04:31.410Z,24.10
2017-10-12T21:07:09.343Z,24.13
2017-10-12T21:09:37.157Z,11.90
2017-10-12T21:12:04.664Z,20.00
2017-10-12T21:14:32.921Z,18.50
2017-10-12T21:17:00.395Z,29.50
2017-10-12T21:19:28.645Z,15.40
2017-10-12T21:22:01.943Z,18.37
2017-10-12T21:24:29.806Z,11.53
2017-10-12T21:27:12.346Z,19.13
2017-10-12T21:29:39.961Z,17.33
2017-10-12T21:32:20.153Z,23.50
2017-10-12T21:34:48.391Z,20.97
2017-10-12T21:37:25.407Z,18.73
2017-10-12T21:39:53.677Z,19.83
2017-10-12T21:42:21.915Z,22.10
2017-10-12T21:44:49.413Z,16.50
2017-10-12T21:47:17.650Z,19.27
2017-10-12T21:49:45.115Z,26.57
2017-10-12T21:52:12.593Z,22.93
2017-10-12T21:54:40.829Z,29.10
2017-10-12T21:57:08.357Z,20.87
2017-10-12T21:59:35.827Z,22.47
2017-10-12T22:02:03.321Z,19.07
2017-10-12T22:04:31.278Z,20.33
2017-10-12T22:06:58.771Z,12.83
2017-10-12T22:09:27.009Z,16.23
2017-10-12T22:11:54.486Z,23.17
2017-10-12T22:14:22.184Z,17.10
2017-10-12T22:16:49.670Z,28.70
2017-10-12T22:19:17.154Z,16.50
2017-10-12T22:21:44.629Z,20.17
2017-10-12T22:24:12.118Z,18.17
2017-10-12T22:26:39.719Z,15.93
2017-10-12T22:29:07.190Z,17.23
2017-10-12T22:31:34.668Z,17.87
2017-10-12T22:34:03.017Z,16.03
2017-10-12T22:36:30.481Z,12.70
2017-10-12T22:38:57.975Z,14.13
2017-10-12T22:41:26.253Z,17.87
2017-10-12T22:43:53.720Z,22.63
2017-10-12T22:46:21.241Z,23.50
2017-10-12T22:48:48.826Z,19.93
2017-10-12T22:51:17.238Z,19.13
2017-10-12T22:53:44.741Z,14.43
2017-10-12T22:56:13.002Z,10.83
2017-10-12T22:58:42.045Z,14.30
2017-10-12T23:01:09.535Z,19.03
2017-10-12T23:03:36.997Z,24.07
2017-10-12T23:06:04.547Z,13.87
2017-10-12T23:08:32.042Z,16.97
2017-10-12T23:11:00.298Z,23.23
2017-10-12T23:13:27.950Z,12.40
2017-10-12T23:15:55.433Z,16.87
2017-10-12T23:18:23.687Z,14.53
2017-10-12T23:20:51.156Z,22.97
2017-10-12T23:23:18.646Z,16.60
2017-10-12T23:25:46.869Z,13.63
2017-10-12T23:28:14.375Z,23.10
2017-10-12T23:30:43.122Z,15.67
2017-10-12T23:33:10.608Z,19.23
2017-10-12T23:35:38.860Z,15.27
2017-10-12T23:38:06.327Z,13.93
2017-10-12T23:40:33.792Z,18.60
2017-10-12T23:43:02.316Z,20.17
2017-10-12T23:45:29.830Z,14.50
2017-10-12T23:47:58.045Z,19.80
2017-10-12T23:50:25.545Z,10.63
2017-10-12T23:52:53.017Z,16.00
2017-10-12T23:55:20.489Z,15.10
2017-10-12T23:57:48.740Z,26.10
